Wetterstation Vordersexau
Wetterdaten: Woche 04.06.18 - 10.06.18 (KW23)
Datum Zeit Temp. A. Feuchte A. Luftdruck Regen Wind Richtung Taupunkt Windchill Windben
04.06.2018 00:00 17,5 C 81 % 1010,1 hPa 0,0 l/m 0,0 km/h NO 14,2 C 17,5 C 0,0 km/h
04.06.2018 01:00 17,1 C 82 % 1009,8 hPa 0,0 l/m 0,0 km/h O-SO 14,0 C 17,1 C 0,0 km/h
04.06.2018 02:00 16,5 C 81 % 1009,6 hPa 0,0 l/m 0,0 km/h O 13,2 C 16,5 C 0,0 km/h
04.06.2018 03:00 17,0 C 80 % 1010,1 hPa 0,0 l/m 0,0 km/h N-NO 13,5 C 17,0 C 0,0 km/h
04.06.2018 04:00 17,1 C 80 % 1009,8 hPa 0,0 l/m 0,0 km/h NO 13,6 C 17,1 C 0,0 km/h
04.06.2018 05:00 16,5 C 79 % 1009,6 hPa 0,0 l/m 0,0 km/h N-NO 12,8 C 16,5 C 0,0 km/h
04.06.2018 06:00 16,5 C 79 % 1009,6 hPa 0,0 l/m 0,0 km/h N-NO 12,8 C 16,5 C 0,0 km/h
04.06.2018 07:00 17,9 C 81 % 1009,2 hPa 0,0 l/m 0,0 km/h W-SW 14,6 C 17,9 C 0,0 km/h
04.06.2018 08:00 19,2 C 84 % 1008,8 hPa 0,0 l/m 0,0 km/h N-NO 16,4 C 19,2 C 0,0 km/h
04.06.2018 09:00 20,2 C 81 % 1008,7 hPa 0,0 l/m 0,0 km/h W-SW 16,8 C 20,2 C 0,0 km/h
04.06.2018 10:00 21,4 C 78 % 1008,4 hPa 0,0 l/m 0,0 km/h W-NW 17,4 C 21,4 C 0,0 km/h
04.06.2018 11:00 23,2 C 74 % 1007,9 hPa 0,0 l/m 0,0 km/h W-SW 18,3 C 23,2 C 0,0 km/h
04.06.2018 12:00 24,1 C 73 % 1007,4 hPa 0,0 l/m 0,0 km/h SW 18,9 C 24,1 C 0,0 km/h
04.06.2018 13:00 26,1 C 67 % 1006,7 hPa 0,0 l/m 14,9 km/h NW 19,5 C 24,7 C 8,3 km/h
04.06.2018 14:00 27,5 C 62 % 1005,8 hPa 0,0 l/m 13,6 km/h W 19,6 C 26,5 C 7,6 km/h
04.06.2018 15:00 27,9 C 61 % 1005,0 hPa 0,0 l/m 0,0 km/h N 19,7 C 27,9 C 0,0 km/h
04.06.2018 16:00 28,8 C 58 % 1004,2 hPa 0,0 l/m 14,9 km/h O-SO 19,7 C 27,9 C 8,3 km/h
04.06.2018 17:00 26,1 C 64 % 1003,8 hPa 0,0 l/m 0,0 km/h O-SO 18,7 C 26,1 C 0,0 km/h
04.06.2018 18:00 26,2 C 66 % 1003,8 hPa 0,0 l/m 0,0 km/h O 19,3 C 26,2 C 0,0 km/h
04.06.2018 19:00 23,9 C 72 % 1004,2 hPa 0,0 l/m 0,0 km/h W 18,5 C 23,9 C 0,0 km/h
04.06.2018 20:00 22,6 C 75 % 1005,6 hPa 0,0 l/m 20,7 km/h SW 17,9 C 19,5 C 11,5 km/h
04.06.2018 21:00 20,5 C 74 % 1007,1 hPa 0,0 l/m 0,0 km/h W-NW 15,7 C 20,5 C 0,0 km/h
04.06.2018 22:00 19,4 C 77 % 1007,1 hPa 0,0 l/m 0,0 km/h W 15,3 C 19,4 C 0,0 km/h
04.06.2018 23:00 18,4 C 80 % 1007,1 hPa 0,0 l/m 0,0 km/h N-NW 14,9 C 18,4 C 0,0 km/h
05.06.2018 00:00 17,8 C 83 % 1006,9 hPa 0,0 l/m 0,0 km/h N-NW 14,9 C 17,8 C 0,0 km/h
05.06.2018 01:00 17,2 C 83 % 1006,7 hPa 0,0 l/m 0,0 km/h N-NO 14,3 C 17,2 C 0,0 km/h
05.06.2018 02:00 16,5 C 83 % 1007,4 hPa 0,0 l/m 0,0 km/h NO 13,6 C 16,5 C 0,0 km/h
05.06.2018 03:00 16,0 C 83 % 1007,5 hPa 0,0 l/m 0,0 km/h O-NO 13,1 C 16,0 C 0,0 km/h
05.06.2018 04:00 15,9 C 82 % 1007,2 hPa 0,0 l/m 0,0 km/h O-NO 12,8 C 15,9 C 0,0 km/h
05.06.2018 05:00 16,0 C 82 % 1007,5 hPa 0,0 l/m 0,0 km/h O-SO 12,9 C 16,0 C 0,0 km/h
05.06.2018 06:00 16,6 C 83 % 1008,1 hPa 0,0 l/m 0,0 km/h O-SO 13,7 C 16,6 C 0,0 km/h
05.06.2018 07:00 18,4 C 83 % 1008,4 hPa 0,0 l/m 0,0 km/h N-NW 15,5 C 18,4 C 0,0 km/h
05.06.2018 08:00 19,6 C 82 % 1008,3 hPa 0,0 l/m 0,0 km/h S-SW 16,4 C 19,6 C 0,0 km/h
05.06.2018 09:00 20,8 C 80 % 1008,3 hPa 0,0 l/m 9,7 km/h S-SO 17,2 C 19,6 C 5,4 km/h
05.06.2018 10:00 22,1 C 76 % 1008,0 hPa 0,0 l/m 0,0 km/h W-SW 17,7 C 22,1 C 0,0 km/h
05.06.2018 11:00 24,2 C 69 % 1007,8 hPa 0,0 l/m 3,9 km/h W-NW 18,1 C 24,2 C 2,2 km/h
05.06.2018 12:00 24,5 C 69 % 1007,4 hPa 0,0 l/m 0,0 km/h W-SW 18,4 C 24,5 C 0,0 km/h
05.06.2018 13:00 25,5 C 66 % 1007,0 hPa 0,0 l/m 16,2 km/h W-SW 18,7 C 23,8 C 9,0 km/h
05.06.2018 14:00 25,3 C 65 % 1006,8 hPa 0,0 l/m 3,2 km/h O-NO 18,2 C 25,3 C 1,8 km/h
05.06.2018 15:00 21,2 C 80 % 1007,0 hPa 1,0 l/m 0,0 km/h NO 17,6 C 21,2 C 0,0 km/h
05.06.2018 16:00 19,6 C 81 % 1006,5 hPa 0,0 l/m 0,0 km/h O-NO 16,2 C 19,6 C 0,0 km/h
05.06.2018 17:00 20,4 C 82 % 1006,0 hPa 0,0 l/m 0,0 km/h O-NO 17,2 C 20,4 C 0,0 km/h
05.06.2018 18:00 22,4 C 77 % 1005,4 hPa 0,0 l/m 0,0 km/h O-SO 18,2 C 22,4 C 0,0 km/h
05.06.2018 19:00 21,4 C 79 % 1005,4 hPa 0,0 l/m 0,0 km/h O-SO 17,6 C 21,4 C 0,0 km/h
05.06.2018 20:00 21,1 C 79 % 1006,2 hPa 0,0 l/m 0,0 km/h O-SO 17,3 C 21,1 C 0,0 km/h
05.06.2018 21:00 19,6 C 83 % 1006,7 hPa 0,0 l/m 0,0 km/h SO 16,6 C 19,6 C 0,0 km/h
05.06.2018 22:00 18,8 C 83 % 1006,6 hPa 0,0 l/m 0,0 km/h S-SO 15,8 C 18,8 C 0,0 km/h
05.06.2018 23:00 18,2 C 83 % 1006,7 hPa 0,0 l/m 0,0 km/h SO 15,3 C 18,2 C 0,0 km/h
06.06.2018 00:00 17,5 C 83 % 1006,6 hPa 0,0 l/m 0,0 km/h O-NO 14,6 C 17,5 C 0,0 km/h
06.06.2018 01:00 17,2 C 84 % 1006,3 hPa 0,0 l/m 0,0 km/h O-NO 14,5 C 17,2 C 0,0 km/h
06.06.2018 02:00 16,3 C 83 % 1006,9 hPa 0,0 l/m 0,0 km/h O-NO 13,4 C 16,3 C 0,0 km/h
06.06.2018 03:00 15,6 C 83 % 1007,4 hPa 0,0 l/m 0,0 km/h O-NO 12,7 C 15,6 C 0,0 km/h
06.06.2018 04:00 15,4 C 82 % 1008,0 hPa 0,0 l/m 0,0 km/h O-NO 12,3 C 15,4 C 0,0 km/h
06.06.2018 05:00 15,5 C 80 % 1008,4 hPa 0,0 l/m 0,0 km/h O-SO 12,1 C 15,5 C 0,0 km/h
06.06.2018 06:00 15,9 C 80 % 1008,9 hPa 0,0 l/m 0,0 km/h O-NO 12,5 C 15,9 C 0,0 km/h
06.06.2018 07:00 17,6 C 82 % 1009,1 hPa 0,0 l/m 0,0 km/h SO 14,5 C 17,6 C 0,0 km/h
06.06.2018 08:00 19,7 C 83 % 1008,9 hPa 0,0 l/m 0,0 km/h SW 16,7 C 19,7 C 0,0 km/h
06.06.2018 09:00 21,3 C 78 % 1009,1 hPa 0,0 l/m 3,9 km/h W 17,3 C 21,3 C 2,2 km/h
06.06.2018 10:00 22,4 C 75 % 1009,6 hPa 0,0 l/m 0,0 km/h SW 17,7 C 22,4 C 0,0 km/h
06.06.2018 11:00 23,8 C 71 % 1009,8 hPa 0,0 l/m 0,0 km/h W 18,2 C 23,8 C 0,0 km/h
06.06.2018 12:00 25,1 C 68 % 1009,7 hPa 0,0 l/m 0,0 km/h S-SW 18,8 C 25,1 C 0,0 km/h
06.06.2018 13:00 25,4 C 66 % 1009,1 hPa 0,0 l/m 11,0 km/h SO 18,6 C 24,4 C 6,1 km/h
06.06.2018 14:00 24,3 C 69 % 1009,0 hPa 0,0 l/m 0,0 km/h O-SO 18,2 C 24,3 C 0,0 km/h
06.06.2018 15:00 24,5 C 73 % 1009,1 hPa 0,5 l/m 0,0 km/h O-NO 19,3 C 24,5 C 0,0 km/h
06.06.2018 16:00 26,1 C 64 % 1008,5 hPa 0,0 l/m 7,1 km/h SO 18,7 C 25,9 C 4,0 km/h
06.06.2018 17:00 23,8 C 71 % 1008,4 hPa 0,0 l/m 0,0 km/h W-NW 18,2 C 23,8 C 0,0 km/h
06.06.2018 18:00 23,3 C 77 % 1008,9 hPa 0,0 l/m 0,0 km/h N-NW 19,0 C 23,3 C 0,0 km/h
06.06.2018 19:00 21,6 C 74 % 1009,3 hPa 0,0 l/m 0,0 km/h NW 16,8 C 21,6 C 0,0 km/h
06.06.2018 20:00 20,7 C 76 % 1010,1 hPa 0,0 l/m 0,0 km/h NW 16,3 C 20,7 C 0,0 km/h
06.06.2018 21:00 19,4 C 81 % 1010,4 hPa 0,0 l/m 0,0 km/h NW 16,1 C 19,4 C 0,0 km/h
06.06.2018 22:00 19,1 C 83 % 1011,1 hPa 0,0 l/m 0,0 km/h W-SW 16,1 C 19,1 C 0,0 km/h
06.06.2018 23:00 18,8 C 83 % 1011,3 hPa 0,0 l/m 6,5 km/h W-SW 15,8 C 18,8 C 3,6 km/h
07.06.2018 00:00 18,5 C 83 % 1011,5 hPa 0,0 l/m 0,0 km/h W-SW 15,6 C 18,5 C 0,0 km/h
07.06.2018 01:00 17,9 C 81 % 1012,5 hPa 0,0 l/m 9,1 km/h S-SW 14,6 C 16,7 C 5,0 km/h
07.06.2018 02:00 16,9 C 80 % 1011,9 hPa 3,1 l/m 0,0 km/h SW 13,4 C 16,9 C 0,0 km/h
07.06.2018 03:00 17,0 C 79 % 1011,9 hPa 0,0 l/m 0,0 km/h SO 13,3 C 17,0 C 0,0 km/h
07.06.2018 04:00 16,8 C 77 % 1011,8 hPa 0,0 l/m 0,0 km/h O-SO 12,7 C 16,8 C 0,0 km/h
07.06.2018 05:00 16,3 C 76 % 1012,3 hPa 0,0 l/m 0,0 km/h O 12,1 C 16,3 C 0,0 km/h
07.06.2018 06:00 16,5 C 74 % 1012,7 hPa 0,0 l/m 0,0 km/h SO 11,8 C 16,5 C 0,0 km/h
07.06.2018 07:00 17,3 C 72 % 1013,1 hPa 0,0 l/m 0,0 km/h SO 12,2 C 17,3 C 0,0 km/h
07.06.2018 08:00 18,7 C 74 % 1013,3 hPa 0,0 l/m 0,0 km/h W-SW 14,0 C 18,7 C 0,0 km/h
07.06.2018 09:00 20,1 C 83 % 1013,3 hPa 0,0 l/m 0,0 km/h W-SW 17,1 C 20,1 C 0,0 km/h
07.06.2018 10:00 21,0 C 81 % 1013,4 hPa 0,0 l/m 11,0 km/h W-SW 17,6 C 19,5 C 6,1 km/h
07.06.2018 11:00 22,1 C 76 % 1013,3 hPa 0,0 l/m 2,6 km/h W-SW 17,7 C 22,1 C 1,4 km/h
07.06.2018 12:00 22,9 C 71 % 1013,1 hPa 0,0 l/m 0,0 km/h W-NW 17,4 C 22,9 C 0,0 km/h
07.06.2018 13:00 23,4 C 71 % 1012,6 hPa 0,0 l/m 0,0 km/h NW 17,8 C 23,4 C 0,0 km/h
07.06.2018 14:00 23,6 C 71 % 1012,4 hPa 0,0 l/m 0,0 km/h N-NW 18,0 C 23,6 C 0,0 km/h
07.06.2018 15:00 23,2 C 71 % 1012,1 hPa 0,0 l/m 17,5 km/h N 17,6 C 20,7 C 9,7 km/h
07.06.2018 16:00 22,8 C 75 % 1011,6 hPa 0,0 l/m 0,0 km/h W-NW 18,1 C 22,8 C 0,0 km/h
07.06.2018 17:00 22,3 C 78 % 1011,3 hPa 0,0 l/m 0,0 km/h W 18,3 C 22,3 C 0,0 km/h
07.06.2018 18:00 22,8 C 78 % 1011,1 hPa 0,0 l/m 0,0 km/h NW 18,8 C 22,8 C 0,0 km/h
07.06.2018 19:00 23,3 C 73 % 1011,1 hPa 0,0 l/m 13,6 km/h N 18,2 C 21,5 C 7,6 km/h
07.06.2018 20:00 22,3 C 75 % 1011,2 hPa 0,0 l/m 0,0 km/h O 17,6 C 22,3 C 0,0 km/h
07.06.2018 21:00 20,3 C 81 % 1011,4 hPa 0,0 l/m 0,0 km/h O 16,9 C 20,3 C 0,0 km/h
07.06.2018 22:00 19,0 C 82 % 1011,4 hPa 0,0 l/m 0,0 km/h O 15,9 C 19,0 C 0,0 km/h
07.06.2018 23:00 18,3 C 83 % 1011,5 hPa 0,0 l/m 0,0 km/h O 15,4 C 18,3 C 0,0 km/h
08.06.2018 00:00 17,9 C 83 % 1011,7 hPa 0,0 l/m 0,0 km/h O 15,0 C 17,9 C 0,0 km/h
08.06.2018 01:00 17,4 C 84 % 1011,3 hPa 0,0 l/m 0,0 km/h SO 14,7 C 17,4 C 0,0 km/h
08.06.2018 02:00 16,8 C 83 % 1010,9 hPa 0,0 l/m 0,0 km/h O-NO 13,9 C 16,8 C 0,0 km/h
08.06.2018 03:00 16,2 C 83 % 1010,5 hPa 0,0 l/m 0,0 km/h O-SO 13,3 C 16,2 C 0,0 km/h
08.06.2018 04:00 15,9 C 82 % 1010,8 hPa 0,0 l/m 0,0 km/h NO 12,8 C 15,9 C 0,0 km/h
08.06.2018 05:00 15,8 C 82 % 1010,9 hPa 0,0 l/m 0,0 km/h SO 12,7 C 15,8 C 0,0 km/h
08.06.2018 06:00 16,2 C 81 % 1011,0 hPa 0,0 l/m 0,0 km/h SW 12,9 C 16,2 C 0,0 km/h
08.06.2018 07:00 18,0 C 83 % 1011,4 hPa 0,0 l/m 0,0 km/h SW 15,1 C 18,0 C 0,0 km/h
08.06.2018 08:00 19,3 C 83 % 1011,2 hPa 0,0 l/m 0,0 km/h N-NW 16,3 C 19,3 C 0,0 km/h
08.06.2018 09:00 21,2 C 80 % 1010,4 hPa 0,0 l/m 0,0 km/h W 17,6 C 21,2 C 0,0 km/h
08.06.2018 10:00 22,4 C 79 % 1010,4 hPa 0,0 l/m 0,0 km/h NW 18,6 C 22,4 C 0,0 km/h
08.06.2018 11:00 24,5 C 71 % 1009,9 hPa 0,0 l/m 0,0 km/h W-NW 18,9 C 24,5 C 0,0 km/h
08.06.2018 12:00 24,5 C 68 % 1009,6 hPa 0,0 l/m 0,0 km/h N-NW 18,2 C 24,5 C 0,0 km/h
08.06.2018 13:00 26,1 C 65 % 1008,7 hPa 0,0 l/m 5,2 km/h N-NW 19,0 C 26,1 C 2,9 km/h
08.06.2018 14:00 25,0 C 67 % 1008,1 hPa 0,0 l/m 0,0 km/h S 18,4 C 25,0 C 0,0 km/h
08.06.2018 15:00 24,5 C 69 % 1008,1 hPa 0,0 l/m 7,8 km/h SO 18,4 C 24,1 C 4,3 km/h
08.06.2018 16:00 21,9 C 80 % 1007,7 hPa 0,0 l/m 0,0 km/h SO 18,3 C 21,9 C 0,0 km/h
08.06.2018 17:00 20,1 C 81 % 1008,1 hPa 0,0 l/m 3,2 km/h SO 16,7 C 20,1 C 1,8 km/h
08.06.2018 18:00 19,6 C 83 % 1008,0 hPa 0,5 l/m 0,0 km/h O 16,6 C 19,6 C 0,0 km/h
08.06.2018 19:00 18,8 C 82 % 1008,6 hPa 1,6 l/m 0,0 km/h SO 15,7 C 18,8 C 0,0 km/h
08.06.2018 20:00 18,4 C 81 % 1009,6 hPa 0,0 l/m 3,9 km/h NO 15,1 C 18,4 C 2,2 km/h
08.06.2018 21:00 17,6 C 83 % 1009,3 hPa 0,5 l/m 0,0 km/h O-SO 14,7 C 17,6 C 0,0 km/h
08.06.2018 22:00 16,9 C 82 % 1010,4 hPa 0,5 l/m 0,0 km/h N-NO 13,8 C 16,9 C 0,0 km/h
08.06.2018 23:00 16,8 C 81 % 1009,2 hPa 0,0 l/m 0,0 km/h SO 13,5 C 16,8 C 0,0 km/h
09.06.2018 00:00 16,5 C 78 % 1009,5 hPa 0,0 l/m 0,0 km/h SO 12,6 C 16,5 C 0,0 km/h
09.06.2018 01:00 16,3 C 78 % 1009,5 hPa 0,0 l/m 0,0 km/h SO 12,5 C 16,3 C 0,0 km/h
09.06.2018 02:00 15,9 C 77 % 1009,6 hPa 0,0 l/m 0,0 km/h O-NO 11,9 C 15,9 C 0,0 km/h
09.06.2018 03:00 16,3 C 74 % 1010,0 hPa 0,0 l/m 0,0 km/h O-SO 11,7 C 16,3 C 0,0 km/h
09.06.2018 04:00 16,6 C 74 % 1010,0 hPa 0,0 l/m 0,0 km/h SO 11,9 C 16,6 C 0,0 km/h
09.06.2018 05:00 16,3 C 72 % 1010,0 hPa 0,0 l/m 0,0 km/h O 11,2 C 16,3 C 0,0 km/h
09.06.2018 06:00 16,7 C 69 % 1010,4 hPa 0,0 l/m 0,0 km/h O-SO 11,0 C 16,7 C 0,0 km/h
09.06.2018 07:00 17,9 C 65 % 1010,2 hPa 0,0 l/m 0,0 km/h NO 11,2 C 17,9 C 0,0 km/h
09.06.2018 08:00 19,2 C 68 % 1010,5 hPa 0,0 l/m 0,0 km/h S-SO 13,1 C 19,2 C 0,0 km/h
09.06.2018 09:00 20,2 C 82 % 1010,4 hPa 0,0 l/m 0,0 km/h SW 17,0 C 20,2 C 0,0 km/h
09.06.2018 10:00 21,7 C 82 % 1010,2 hPa 0,0 l/m 0,0 km/h NW 18,5 C 21,7 C 0,0 km/h
09.06.2018 11:00 22,7 C 77 % 1010,0 hPa 0,0 l/m 0,0 km/h N 18,5 C 22,7 C 0,0 km/h
09.06.2018 12:00 24,6 C 73 % 1009,7 hPa 0,0 l/m 0,0 km/h SW 19,4 C 24,6 C 0,0 km/h
09.06.2018 13:00 24,4 C 69 % 1009,3 hPa 0,0 l/m 0,0 km/h SO 18,3 C 24,4 C 0,0 km/h
09.06.2018 14:00 25,5 C 69 % 1008,9 hPa 0,0 l/m 1,9 km/h NO 19,4 C 25,5 C 1,1 km/h
09.06.2018 15:00 25,9 C 65 % 1008,8 hPa 0,0 l/m 0,0 km/h N-NW 18,8 C 25,9 C 0,0 km/h
09.06.2018 16:00 24,2 C 73 % 1009,1 hPa 0,0 l/m 0,0 km/h N-NW 19,0 C 24,2 C 0,0 km/h
09.06.2018 17:00 23,4 C 78 % 1008,3 hPa 0,0 l/m 0,0 km/h NW 19,3 C 23,4 C 0,0 km/h
09.06.2018 18:00 22,4 C 79 % 1009,4 hPa 0,0 l/m 14,9 km/h NW 18,6 C 20,2 C 8,3 km/h
09.06.2018 19:00 22,4 C 81 % 1009,7 hPa 0,0 l/m 0,0 km/h S 19,0 C 22,4 C 0,0 km/h
09.06.2018 20:00 21,9 C 81 % 1009,6 hPa 0,0 l/m 0,0 km/h SO 18,5 C 21,9 C 0,0 km/h
09.06.2018 21:00 20,4 C 83 % 1009,6 hPa 0,0 l/m 0,0 km/h SO 17,4 C 20,4 C 0,0 km/h
09.06.2018 22:00 19,5 C 83 % 1010,4 hPa 0,0 l/m 0,0 km/h SO 16,5 C 19,5 C 0,0 km/h
09.06.2018 23:00 19,3 C 83 % 1010,5 hPa 0,0 l/m 0,0 km/h SO 16,3 C 19,3 C 0,0 km/h
10.06.2018 00:00 18,9 C 83 % 1010,6 hPa 0,0 l/m 0,0 km/h SO 15,9 C 18,9 C 0,0 km/h
10.06.2018 01:00 18,9 C 83 % 1010,3 hPa 0,0 l/m 0,0 km/h O 15,9 C 18,9 C 0,0 km/h
10.06.2018 02:00 19,1 C 82 % 1010,0 hPa 0,0 l/m 0,0 km/h O-SO 16,0 C 19,1 C 0,0 km/h
10.06.2018 03:00 18,2 C 83 % 1009,3 hPa 0,0 l/m 0,0 km/h SO 15,3 C 18,2 C 0,0 km/h
10.06.2018 04:00 17,3 C 83 % 1009,2 hPa 0,0 l/m 0,0 km/h S-SO 14,4 C 17,3 C 0,0 km/h
10.06.2018 05:00 16,9 C 82 % 1009,0 hPa 0,0 l/m 3,9 km/h SO 13,8 C 16,9 C 2,2 km/h
10.06.2018 06:00 17,6 C 81 % 1009,3 hPa 0,0 l/m 0,0 km/h O 14,3 C 17,6 C 0,0 km/h
10.06.2018 07:00 19,1 C 83 % 1009,8 hPa 0,0 l/m 0,0 km/h O-SO 16,1 C 19,1 C 0,0 km/h
10.06.2018 08:00 20,6 C 83 % 1010,0 hPa 0,0 l/m 0,0 km/h SW 17,6 C 20,6 C 0,0 km/h
10.06.2018 09:00 21,9 C 82 % 1009,9 hPa 0,0 l/m 0,0 km/h S-SW 18,7 C 21,9 C 0,0 km/h
10.06.2018 10:00 23,4 C 77 % 1009,6 hPa 0,0 l/m 0,0 km/h W-SW 19,1 C 23,4 C 0,0 km/h
10.06.2018 11:00 24,8 C 70 % 1009,6 hPa 0,0 l/m 0,0 km/h S 18,9 C 24,8 C 0,0 km/h
10.06.2018 12:00 25,9 C 68 % 1009,1 hPa 0,0 l/m 0,0 km/h W 19,5 C 25,9 C 0,0 km/h
10.06.2018 13:00 26,3 C 65 % 1009,0 hPa 0,0 l/m 0,0 km/h W-SW 19,2 C 26,3 C 0,0 km/h
10.06.2018 14:00 26,5 C 63 % 1008,8 hPa 0,0 l/m 0,0 km/h S-SW 18,9 C 26,5 C 0,0 km/h
10.06.2018 15:00 26,3 C 63 % 1008,5 hPa 0,0 l/m 0,0 km/h W-SW 18,7 C 26,3 C 0,0 km/h
10.06.2018 16:00 27,3 C 60 % 1008,4 hPa 0,0 l/m 0,0 km/h SW 18,8 C 27,3 C 0,0 km/h
10.06.2018 17:00 27,4 C 59 % 1007,9 hPa 0,0 l/m 10,4 km/h NW 18,7 C 26,8 C 5,8 km/h
10.06.2018 18:00 27,9 C 57 % 1007,4 hPa 0,0 l/m 0,0 km/h N-NO 18,6 C 27,9 C 0,0 km/h
10.06.2018 19:00 26,1 C 62 % 1007,3 hPa 0,0 l/m 0,0 km/h O-NO 18,2 C 26,1 C 0,0 km/h
10.06.2018 20:00 23,1 C 74 % 1007,6 hPa 0,0 l/m 0,0 km/h O-NO 18,2 C 23,1 C 0,0 km/h
10.06.2018 21:00 21,6 C 77 % 1008,0 hPa 0,0 l/m 0,0 km/h O-NO 17,4 C 21,6 C 0,0 km/h
10.06.2018 22:00 20,6 C 80 % 1008,8 hPa 0,0 l/m 0,0 km/h O-NO 17,0 C 20,6 C 0,0 km/h
10.06.2018 23:00 19,9 C 81 % 1008,7 hPa 0,0 l/m 0,0 km/h O-SO 16,5 C 19,9 C 0,0 km/h
Min-Datum _ 06.06.18 10.06.18 04.06.18 - 04.06.18 - 09.06.18 06.06.18 04.06.18
_ Min-Zeit 04:53 18:53 17:53 - 00:53 - 06:53 04:53 00:53
Minimum _ 15,4 C 57 % 1003,8 hPa - 0,0 km/h - 11,0 C 15,4 C 0,0 km/h
Max-Datum _ 04.06.18 04.06.18 07.06.18 07.06.18 04.06.18 - 04.06.18 04.06.18 04.06.18
_ Max-Zeit 16:53 08:53 10:53 02:53 20:53 - 16:53 16:53 20:53
Maximum _ 28,8 C 84 % 1013,4 hPa 3,1 l/m 20,7 km/h
SW
- 19,7 C 27,9 C 11,5 km/h
SW
Durchschnitt _ 20,6 C 77 % 1009,2 hPa #7,8 l/m 1,4 km/h SO 16,3 C 20,5 C 0,8 km/h
www.sexauwetter.de